Close

Questo sito utlizza cookie. Può leggere come li usiamo nella nostra Privacy Policy.

Ronchi Tower
Ronchi Tower

From Facebook

METAR & TAF

2022/09/29 16:50 LIPQ 291650Z AUTO 02006KT 9999 VCTS BKN052/// 17/15 Q1000 RETSRA
2022/09/29 18:21 TAF LIPQ 291700Z 2918/3018 07008KT 9999 BKN030 TEMPO 2918/3006 4000 TSRA TEMPO 3010/3018 SHRA
2022/09/29 16:50 LIPZ 291650Z 18010KT 9999 FEW030 20/14 Q0998 NOSIG
2022/09/29 18:21 TAF LIPZ 291700Z 2918/3024 04010KT 9999 SCT020 BKN050 TEMPO 2918/3002 4000 TSRA TEMPO 3008/3020 SHRA TEMPO 3020/3024 4000 TSRA
2022/09/29 16:50 LIPH 291650Z 05008KT 320V080 9999 FEW020 SCT050 17/15 Q0998 RETSRA RETSGR
2022/09/29 18:21 TAF LIPH 291700Z 2918/3018 04008KT 9999 SCT020 BKN050 TEMPO 2918/3002 4000 TSRA TEMPO 3010/3018 SHRA
2022/09/29 16:50 LIRF 291650Z 20011KT CAVOK 23/18 Q1002 NOSIG
2022/09/29 18:21 TAF LIRF 291700Z 2918/3024 22014KT 9999 SCT040 TEMPO 2918/2922 4000 TSRA BECMG 2922/2924 16010KT TEMPO 3002/3014 4000 TSRA TEMPO 3012/3018 19016G26KT BECMG 3020/3022 VRB05KT
2022/09/29 16:50 LIML 291650Z 10005KT 050V130 9999 FEW020 SCT070 19/14 Q0998 NOSIG
2022/09/29 18:21 TAF LIML 291700Z 2918/3018 VRB05KT 9999 BKN030 TEMPO 2918/3004 4000 TSRA BECMG 2922/2924 07010KT TEMPO 3006/3015 4000 TSRA BECMG 3012/3014 VRB05KT
2022/09/29 17:20 EDDM 291720Z AUTO 31002KT 9999 -RA BKN048 09/07 Q1005 NOSIG
2022/09/29 12:30 TAF COR TAF COR EDDM 291126Z 2912/3018 07005KT 9999 SCT020 BKN040 TEMPO 2912/2915 RA BECMG 2916/2918 VRB03KT TEMPO 3002/3006 4000 -DZ BR BKN006
2022/09/29 16:50 EGSS 291650Z AUTO VRB02KT 9999 NCD 15/06 Q1006
2022/09/29 18:15 TAF TAF EGSS 291705Z 2918/3024 35003KT 9999 FEW045 PROB30 TEMPO 2918/2920 7000 SHRA BECMG 2921/2924 8000 BECMG 3000/3003 3000 BR MIFG PROB40 3000/3008 0300 FG VV/// BECMG 3008/3011 20012KT 9999 NSW BECMG 3013/3016 20018G30KT 7000 RA BKN014 PROB40 TEMPO 3015/3021 3000 +RA BKN009 BECMG 3019/3022 26012KT 9999 NSW SCT020 TEMPO 3022/3024 BKN014
2022/09/29 17:20 EDDF 291720Z AUTO 23002KT CAVOK 09/07 Q1005 NOSIG
2022/09/29 12:29 TAF EDDF 291100Z 2912/3018 22005KT 9999 BKN015 PROB30 TEMPO 2913/2917 SHRA BKN020CB BECMG 2914/2916 12003KT BECMG 3000/3003 4000 BCFG TEMPO 3003/3008 0300 FG BKN001 BECMG 3008/3009 9999 BKN005 BECMG 3009/3011 22006KT SCT010

FlightRadar24

Radar Meteo

Traffic data

Agosto 2018

Passeggeri: 63892-12,9% (rank: 23)
Nazionali 34490 -19,8%
Internazionali 29193 -3,0%

Movimenti: 1307+11,7% (rank: 24)
Tot commerciale 556 -7,2%
Aviazione generale 751 +31,5%

Cargo (tons): 20,6+62,5% (rank: 21)

Gennaio - Agosto 2018

Passeggeri: 507438-3,5% (rank: 23)
Nazionali 322655 -4,9%
Internazionali 182927 -0,7%

Movimenti: 10366-4,25 (rank: 22)
Tot commerciale 5328 -11,0%
Aviazione generale 5038 +4,2%

Cargo (tons): 299,2+61,9% (rank: 20)

Photo

Airbus A320
Airbus A320
Distinct views: 18
Reims F152 II
Reims F152 II
Distinct views: 73
Gulfstream Aerospace G550
Gulfstream Aerospace G550
Distinct views: 207
Embraer EMB-145EU
Embraer EMB-145EU
Total views: 1419